Nearby METAR Reports

 

EGKA - Shoreham-By-Sea, United Kingdom
Distance from station: SW 9mi, 14km
Updated: Sun, 21-Oct-2018 1:20pm BST
NOT Current
Clear
Clear
 Wind from SSW
Wind: SSW 8 mph , 13 km/h
Temperature: 17°C
Dew Point: 13°C
Humidity: 77%
Barometer: 1027 hPa
Summary: Clear
Visibility: greater than 7 miles , 10 km
2018/10/21 12:20 EGKA 211220Z 20007KT CAVOK 17/13 Q1027
EGKK - London/Gatwick A, United Kingdom
Distance from station: N 14mi, 22km
Updated: Sun, 21-Oct-2018 2:20pm BST
Clear
Clear
 Wind from W
Wind: W 7 mph , 11 km/h
Temperature: 19°C
Dew Point: 11°C
Humidity: 60%
Barometer: 1027 hPa
Summary: Clear
Visibility: greater than 7 miles , 10 km
2018/10/21 13:20 EGKK 211320Z 28006KT 240V310 CAVOK 19/11 Q1027
 
EGKB - Biggin Hill, United Kingdom
Distance from station: NNE 28mi, 44km
Updated: Sun, 21-Oct-2018 2:20pm BST
Clear
Clear
 Wind from W
Wind: W 8 mph , 13 km/h
Temperature: 18°C
Dew Point: 9°C
Humidity: 56%
Barometer: 1027 hPa
Summary: Clear
Visibility: greater than 7 miles , 10 km
2018/10/21 13:20 EGKB 211320Z 26007KT 240V300 CAVOK 18/09 Q1027
EGLF - Farnborough, United Kingdom
Distance from station: NW 35mi, 56km
Updated: Sun, 21-Oct-2018 2:20pm BST
Clear
Clear
 Wind from WSW
Wind: WSW 9 mph , 15 km/h
Temperature: 18°C
Dew Point: 11°C
Humidity: 64%
Barometer: 1027 hPa
Summary: Clear
Visibility: greater than 7 miles , 10 km
2018/10/21 13:20 EGLF 211320Z 24008KT CAVOK 18/11 Q1027
 
EGMD - Lydd Airport, United Kingdom
Distance from station: E 48mi, 77km
Updated: Sun, 21-Oct-2018 2:20pm BST
Clear
Clear
 Wind from SSW
Wind: SSW 9 mph , 15 km/h
Temperature: 18°C
Dew Point: 13°C
Humidity: 73%
Barometer: 1027 hPa
Summary: Clear
Visibility: greater than 7 miles , 10 km
2018/10/21 13:20 EGMD 211320Z 21008KT CAVOK 18/13 Q1027
EGHI - Southampton Wx C, United Kingdom
Distance from station: W 50mi, 82km
Updated: Sun, 21-Oct-2018 2:20pm BST
Few Clouds
Few Clouds
 Wind from WNW
Wind: WNW 7 mph , 11 km/h
Temperature: 17°C
Dew Point: 10°C
Humidity: 64%
Barometer: 1027 hPa
Clouds: Few Clouds
Visibility: 6 miles , 10 km
Cloud details: Few Clouds 1036 m
2018/10/21 13:20 EGHI 211320Z 29006KT 250V340 9999 FEW034 17/10 Q1027

Metar display script from Saratoga-Weather.org